KLWT/LWT METAR and TAF weather

Enter ICAO airport designator
Station Type Date Time Source
KLWT METAR 2021/09/24 03:54 UTC NOAA

KLWT 240354Z AUTO 11003KT 10SM OVC100 11/M01 A3021 RMK AO2 SLP215 T01111006


Station Type Date Time Source
KLWT Decoded METAR 2021/09/24 03:54 UTC NOAA

LEWISTOWN MUNICIPAL AIRPORT , MT, United States (KLWT) 47-03N 109-27W
Sep 23, 2021 - 11:54 PM EDT / 2021.09.24 0354 UTC
Wind: from the ESE (110 degrees) at 3 MPH (3 KT):0
Visibility: 10 mile(s):0
Sky conditions: overcast
Temperature: 52.0 F (11.1 C)
Dew Point: 30.9 F (-0.6 C)
Relative Humidity: 44%
Pressure (altimeter): 30.21 in. Hg (1023 hPa)
ob: KLWT 240354Z AUTO 11003KT 10SM OVC100 11/M01 A3021 RMK AO2 SLP215 T01111006
cycle: 4

Station Type Date Time Source
KLWT TAF 2021/09/23 18:36 UTC NOAA

TAF KLWT 231735Z 2318/2418 31010G18KT P6SM SCT250
FM240100 VRB06KT P6SM FEW250

Example: see airport list